Aviation Digital Data Service (ADDS)

Output produced by METARs form (0122 UTC 19 November 2018)
found at http://www.aviationweather.gov/metar/data/
 
LHBP 190100Z VRB03KT CAVOK 03/M02 Q1016 NOSIG
LHBP 190030Z VRB03KT 9999 FEW046 BKN056 03/M02 Q1016 NOSIG
LHBP 190000Z VRB03KT 9999 FEW046 BKN056 03/M02 Q1016 NOSIG
LHBP 182330Z VRB03KT 9999 FEW045 BKN054 02/M02 Q1017 NOSIG
LHBP 182300Z VRB03KT 9999 FEW045 BKN054 03/M02 Q1017 NOSIG
LHBP 182230Z 07004KT 020V100 9999 -RA SCT038 BKN054 03/M02 Q1017 NOSIG
TAF LHBP 182315Z 1900/1924 05006KT 9999 SCT030 BKN045 
     BECMG 1900/1901 BKN030 
     TEMPO 1901/1913 2000 -RA -SN BR BKN004 OVC010 
     BECMG 1913/1915 5000 BR OVC015 
     TEMPO 1915/1918 3000 BR -DZ BKN010 OVC020 
     BECMG 1918/1921 CAVOK
       
LHDC 182315Z 03008KT CAVOK 02/M02 Q1017 NOSIG
LHDC 182245Z 03009KT CAVOK 01/M02 Q1017 NOSIG
TAF LHDC 182015Z 1821/1906 04009KT CAVOK 
     BECMG 1821/1824 SCT040 BKN080 
     TEMPO 1823/1906 6000 -RA -RASN BKN020 OVC060 
     PROB30 
     TEMPO 1900/1906 2000 RASN BR BKN008 OVC015
       
LHKE 190045Z 06008KT 9999 -SN BKN021 OVC047 02/M02 Q1016 NOSIG RMK WHT
LHKE 190015Z 07008KT 9999 BKN031 OVC057 03/M02 Q1016 NOSIG RMK BLU
LHKE 182345Z 06006KT 9999 BKN033 OVC050 03/M03 Q1016 NOSIG RMK BLU
LHKE 182315Z 06008KT 030V090 CAVOK 03/M03 Q1016 NOSIG RMK BLU
LHKE 182245Z 04006KT 010V070 CAVOK 03/M03 Q1016 NOSIG RMK BLU
TAF LHKE 182315Z 1900/1909 06006KT 8000 BKN040 OVC080 
     BECMG 1900/1903 5000 -SN -RASN BR BKN005 OVC015 
     TEMPO 1903/1909 1500 SN BR BKN002 OVC005
       
LHPA 190015Z 33002KT 6000 BKN040 OVC083 01/M02 Q1017 TEMPO -SN -SNRA RMK WHT
LHPA 182345Z 34004KT 6000 BKN040 OVC083 01/M02 Q1017 TEMPO -SN -SNRA RMK WHT
LHPA 182315Z 34004KT 6000 BKN040 OVC083 01/M01 Q1017 TEMPO -SN -SNRA RMK WHT
LHPA 182245Z 33004KT 6000 BKN040 OVC083 01/M01 Q1017 TEMPO -SN -SNRA RMK WHT
TAF LHPA 182315Z 1900/1924 03005KT 5000 BR SCT005 OVC020 
     TEMPO 1900/1915 1500 SN SNRA BR BKN005 OVC015 
     TEMPO 1915/1924 1500 BR BKN005 OVC015
       
TAF LHPP 181415Z 1815/1824 05006KT 9999 SCT036 BKN080 
     TEMPO 1815/1824 -SN -RASN BKN030 OVC060
       
LHPR 190045Z AUTO 31003KT 280V350 8000 FEW043 02/M01 Q1016 RMK BLU
LHPR 190015Z AUTO VRB03KT 8000 FEW044 02/M01 Q1016 RMK BLU
LHPR 182345Z AUTO 29005KT 8000 FEW045 02/M00 Q1017 RMK BLU
LHPR 182315Z AUTO 27004KT 8000 FEW039 02/M00 Q1017 RMK BLU
LHPR 182245Z AUTO VRB02KT 8000 FEW029 02/M00 Q1017 RMK BLU
TAF LHPR 181715Z 1818/1903 VRB03KT 9999 BKN045 OVC080 
     TEMPO 1820/1903 5000 -SN BKN030 OVC060
       
LHSN 190045Z 05008KT 9999 -SNRA BKN027 OVC040 02/M00 Q1016 NOSIG RMK BLU
LHSN 190015Z 07006KT 9999 -SNRA BKN025 OVC040 03/M02 Q1016 NOSIG RMK WHT
LHSN 182345Z 07006KT 040V100 9999 SCT045 OVC055 03/M02 Q1016 NOSIG RMK BLU
LHSN 182315Z 08006KT CAVOK 03/M02 Q1016 NOSIG RMK BLU
LHSN 182245Z 06008KT CAVOK 03/M03 Q1017 TEMPO -RA RMK BLU
TAF LHSN 182315Z 1900/1909 04007KT 9999 SCT040 BKN080 
     PROB40 
     TEMPO 1900/1902 7000 -RASN BKN030 OVC080 
     BECMG 1902/1904 5000 -SNRA SN BR BKN005 OVC015 
     TEMPO 1904/1909 3000 SN BR OVC005
       
LHUD 190045Z 05005KT 9999 -RA SCT006 BKN016 02/01 Q1016
LHUD 182345Z 05004KT 9999 -RASN SCT006 BKN016 02/01 Q1016
LHUD 182245Z 06005KT 9999 -RA BKN020 03/01 Q1017